Terminal Aerodrome Forecast
Issued by NWS North Platte, NE

Home | Current Version | Previous Version | Graphics & Text | Print | Product List | Glossary On
Versions: 1 2 3 4 5 6 7 8 9 10 11 12 13 14 15 16 17 18 19
714
FTUS43 KLBF 161420 AAA
TAFVTN
TAF AMD
KVTN 161420Z 1614/1712 32010G18KT P6SM BKN008 OVC014
     FM161600 34011KT P6SM OVC015
     FM161900 34012KT P6SM SCT025 BKN150
     FM170200 27005KT P6SM SKC=

USA.gov is the U.S. government's official web portal to all federal, state and local government web resources and services.